createdAt,value
2022-10-05T00:00:19.724Z,99702.88
2022-10-05T00:02:48.172Z,99697.25
2022-10-05T00:05:27.154Z,99712.47
2022-10-05T00:07:57.453Z,99702.03
2022-10-05T00:10:24.480Z,99701.34
2022-10-05T00:12:51.462Z,99697.16
2022-10-05T00:15:20.966Z,99690.72
2022-10-05T00:17:48.050Z,99688.87
2022-10-05T00:20:19.349Z,99687.38
2022-10-05T00:22:47.095Z,99687.78
2022-10-05T00:25:19.343Z,99688.81
2022-10-05T00:27:56.973Z,99689.09
2022-10-05T00:30:26.488Z,99684.06
2022-10-05T00:32:58.699Z,99686.38
2022-10-05T00:35:29.285Z,99687.78
2022-10-05T00:37:57.075Z,99692.03
2022-10-05T00:40:46.165Z,99696.97
2022-10-05T00:43:35.141Z,99691.91
2022-10-05T00:46:12.154Z,99690.22
2022-10-05T00:48:52.369Z,99686.47
2022-10-05T00:51:30.585Z,99684.31
2022-10-05T00:54:05.920Z,99685.72
2022-10-05T00:56:51.057Z,99692.91
2022-10-05T00:59:33.800Z,99688.41
2022-10-05T01:02:11.482Z,99685.56
2022-10-05T01:04:54.733Z,99690.44
2022-10-05T01:07:46.747Z,99682.28
2022-10-05T01:10:26.830Z,99689.91
2022-10-05T01:12:56.426Z,99685.50
2022-10-05T01:15:36.552Z,99696.34
2022-10-05T01:18:18.499Z,99695.72
2022-10-05T01:21:14.036Z,99705.47
2022-10-05T01:23:57.021Z,99711.06
2022-10-05T01:26:36.306Z,99708.03
2022-10-05T01:29:30.978Z,99713.44
2022-10-05T01:32:20.437Z,99719.47
2022-10-05T01:34:53.350Z,99709.81
2022-10-05T01:37:32.506Z,99714.75
2022-10-05T01:40:08.440Z,99721.50
2022-10-05T01:43:14.329Z,99724.22
2022-10-05T01:46:19.725Z,99719.09
2022-10-05T01:49:24.634Z,99715.22
2022-10-05T01:52:06.569Z,99716.34
2022-10-05T01:54:47.298Z,99714.94
2022-10-05T01:57:38.948Z,99714.47
2022-10-05T02:00:09.364Z,99715.94
2022-10-05T02:02:49.236Z,99723.31
2022-10-05T02:05:24.782Z,99725.38
2022-10-05T02:07:57.262Z,99732.53
2022-10-05T02:10:32.838Z,99737.28
2022-10-05T02:13:15.949Z,99737.56
2022-10-05T02:16:09.261Z,99746.38
2022-10-05T02:18:43.907Z,99734.94
2022-10-05T02:21:11.220Z,99735.91
2022-10-05T02:23:41.005Z,99738.31
2022-10-05T02:26:11.748Z,99732.34
2022-10-05T02:28:45.826Z,99740.25
2022-10-05T02:31:16.194Z,99730.84
2022-10-05T02:33:43.548Z,99729.81
2022-10-05T02:36:11.198Z,99738.12
2022-10-05T02:38:44.286Z,99743.31
2022-10-05T02:41:30.327Z,99741.81
2022-10-05T02:44:09.532Z,99740.06
2022-10-05T02:46:53.095Z,99735.13
2022-10-05T02:50:06.913Z,99747.41
2022-10-05T02:53:07.745Z,99743.69
2022-10-05T02:55:41.040Z,99734.28
2022-10-05T02:58:21.225Z,99738.12
2022-10-05T03:00:59.186Z,99739.31
2022-10-05T03:03:39.945Z,99739.31
2022-10-05T03:06:18.930Z,99737.94
2022-10-05T03:09:05.681Z,99728.06
2022-10-05T03:11:41.218Z,99725.28
2022-10-05T03:14:14.690Z,99726.22
2022-10-05T03:17:10.950Z,99716.50
2022-10-05T03:19:55.865Z,99721.25
2022-10-05T03:22:48.526Z,99722.66
2022-10-05T03:25:34.882Z,99708.22
2022-10-05T03:28:18.472Z,99713.72
2022-10-05T03:30:55.878Z,99709.16
2022-10-05T03:33:57.241Z,99716.12
2022-10-05T03:36:37.378Z,99717.88
2022-10-05T03:39:11.213Z,99717.06
2022-10-05T03:41:48.543Z,99714.31
2022-10-05T03:44:24.321Z,99724.44
2022-10-05T03:47:36.905Z,99727.72
2022-10-05T03:50:13.222Z,99725.19
2022-10-05T03:52:51.401Z,99727.16
2022-10-05T03:55:21.746Z,99731.44
2022-10-05T03:57:50.360Z,99736.56
2022-10-05T04:00:20.163Z,99738.62
2022-10-05T04:02:51.052Z,99744.25
2022-10-05T04:05:28.782Z,99746.25
2022-10-05T04:08:28.702Z,99741.31
2022-10-05T04:10:58.352Z,99739.12
2022-10-05T04:13:29.287Z,99745.69
2022-10-05T04:16:02.833Z,99742.59
2022-10-05T04:18:49.237Z,99738.31
2022-10-05T04:21:24.091Z,99746.84
2022-10-05T04:24:06.400Z,99750.37
2022-10-05T04:26:49.904Z,99751.31
2022-10-05T04:29:37.782Z,99749.63
2022-10-05T04:32:25.072Z,99751.31
2022-10-05T04:35:11.391Z,99746.94
2022-10-05T04:37:51.297Z,99750.06
2022-10-05T04:40:24.497Z,99751.56
2022-10-05T04:43:23.701Z,99750.78
2022-10-05T04:45:56.676Z,99742.97
2022-10-05T04:48:48.824Z,99747.56
2022-10-05T04:51:34.595Z,99754.31
2022-10-05T04:54:13.112Z,99756.06
2022-10-05T04:56:53.571Z,99753.78
2022-10-05T04:59:29.755Z,99746.22
2022-10-05T05:02:39.556Z,99753.03
2022-10-05T05:05:15.854Z,99751.09
2022-10-05T05:08:06.939Z,99751.50
2022-10-05T05:11:16.169Z,99753.53
2022-10-05T05:13:57.910Z,99758.81
2022-10-05T05:16:36.250Z,99750.16
2022-10-05T05:19:04.165Z,99740.19
2022-10-05T05:21:39.941Z,99744.16
2022-10-05T05:24:31.472Z,99751.13
2022-10-05T05:27:03.746Z,99744.34
2022-10-05T05:29:37.385Z,99742.13
2022-10-05T05:32:17.747Z,99753.62
2022-10-05T05:35:05.167Z,99748.53
2022-10-05T05:37:36.284Z,99747.78
2022-10-05T05:40:26.668Z,99761.00
2022-10-05T05:43:00.762Z,99766.00
2022-10-05T05:45:28.055Z,99753.16
2022-10-05T05:47:59.342Z,99767.88
2022-10-05T05:50:45.224Z,99770.25
2022-10-05T05:53:27.472Z,99775.34
2022-10-05T05:56:00.674Z,99776.09
2022-10-05T05:58:39.703Z,99779.72
2022-10-05T06:01:32.133Z,99789.00
2022-10-05T06:04:15.297Z,99796.97
2022-10-05T06:06:46.800Z,99800.56
2022-10-05T06:09:23.542Z,99795.75
2022-10-05T06:11:57.362Z,99802.87
2022-10-05T06:14:29.041Z,99803.13
2022-10-05T06:17:24.133Z,99807.09
2022-10-05T06:19:53.924Z,99824.38
2022-10-05T06:22:29.315Z,99835.88
2022-10-05T06:25:12.031Z,99844.56
2022-10-05T06:28:00.330Z,99848.34
2022-10-05T06:30:49.728Z,99849.19
2022-10-05T06:33:43.950Z,99848.56
2022-10-05T06:36:39.747Z,99847.59
2022-10-05T06:40:00.052Z,99856.47
2022-10-05T06:42:36.159Z,99852.59
2022-10-05T06:45:18.797Z,99863.25
2022-10-05T06:47:53.961Z,99866.09
2022-10-05T06:50:37.110Z,99867.91
2022-10-05T06:53:22.802Z,99876.31
2022-10-05T06:55:56.901Z,99882.62
2022-10-05T06:58:46.370Z,99876.03
2022-10-05T07:01:25.809Z,99879.19
2022-10-05T07:04:37.135Z,99875.53
2022-10-05T07:07:07.349Z,99881.88
2022-10-05T07:09:53.489Z,99886.25
2022-10-05T07:12:26.408Z,99901.06
2022-10-05T07:14:59.884Z,99899.03
2022-10-05T07:17:50.103Z,99895.81
2022-10-05T07:20:26.280Z,99890.91
2022-10-05T07:23:20.030Z,99893.28
2022-10-05T07:25:47.627Z,99888.16
2022-10-05T07:28:58.204Z,99877.59
2022-10-05T07:31:35.248Z,99881.91
2022-10-05T07:34:07.113Z,99888.31
2022-10-05T07:37:18.477Z,99892.13
2022-10-05T07:40:08.073Z,99897.34
2022-10-05T07:42:51.707Z,99902.59
2022-10-05T07:45:22.454Z,99900.63
2022-10-05T07:47:58.686Z,99897.50
2022-10-05T07:50:34.925Z,99902.00
2022-10-05T07:53:06.707Z,99894.59
2022-10-05T07:55:54.737Z,99891.72
2022-10-05T07:58:37.244Z,99898.62
2022-10-05T08:01:14.031Z,99897.19
2022-10-05T08:04:01.276Z,99898.62
2022-10-05T08:06:43.389Z,99903.16
2022-10-05T08:09:52.489Z,99910.75
2022-10-05T08:12:32.004Z,99908.47
2022-10-05T08:15:15.444Z,99909.91
2022-10-05T08:17:49.594Z,99909.31
2022-10-05T08:20:50.783Z,99908.78
2022-10-05T08:23:17.883Z,99915.31
2022-10-05T08:26:22.765Z,99906.03
2022-10-05T08:29:16.624Z,99910.28
2022-10-05T08:31:47.045Z,99906.09
2022-10-05T08:34:23.872Z,99899.34
2022-10-05T08:37:03.177Z,99901.44
2022-10-05T08:39:34.289Z,99900.16
2022-10-05T08:42:23.544Z,99889.25
2022-10-05T08:44:53.161Z,99892.69
2022-10-05T08:47:50.556Z,99890.19
2022-10-05T08:50:36.350Z,99889.13
2022-10-05T08:53:28.429Z,99883.97
2022-10-05T08:56:07.228Z,99880.03
2022-10-05T08:58:40.349Z,99881.47
2022-10-05T09:01:30.230Z,99875.00
2022-10-05T09:04:22.678Z,99876.44
2022-10-05T09:07:22.210Z,99878.19
2022-10-05T09:10:18.792Z,99884.31
2022-10-05T09:12:56.919Z,99884.78
2022-10-05T09:15:35.102Z,99890.97
2022-10-05T09:18:23.711Z,99897.28
2022-10-05T09:21:09.868Z,99904.50
2022-10-05T09:23:42.938Z,99915.91
2022-10-05T09:26:41.744Z,99910.06
2022-10-05T09:29:38.916Z,99912.00
2022-10-05T09:32:18.469Z,99910.72
2022-10-05T09:35:22.305Z,99914.12
2022-10-05T09:38:13.384Z,99908.59
2022-10-05T09:41:14.882Z,99904.06
2022-10-05T09:43:57.469Z,99907.47
2022-10-05T09:46:52.483Z,99913.84
2022-10-05T09:49:38.249Z,99911.19
2022-10-05T09:53:04.939Z,99918.44
2022-10-05T09:55:47.157Z,99911.69
2022-10-05T09:58:33.339Z,99904.31
2022-10-05T10:01:34.259Z,99897.81
2022-10-05T10:04:21.080Z,99901.78
2022-10-05T10:07:25.677Z,99907.28
2022-10-05T10:09:59.853Z,99905.00
2022-10-05T10:12:32.780Z,99900.00
2022-10-05T10:15:23.986Z,99900.44
2022-10-05T10:18:09.266Z,99901.75
2022-10-05T10:20:45.618Z,99900.66
2022-10-05T10:23:27.487Z,99906.97
2022-10-05T10:25:57.790Z,99904.69
2022-10-05T10:29:02.157Z,99896.78
2022-10-05T10:31:29.449Z,99901.69
2022-10-05T10:34:14.546Z,99903.44
2022-10-05T10:37:12.370Z,99908.56
2022-10-05T10:39:47.652Z,99899.91
2022-10-05T10:42:49.115Z,99903.91
2022-10-05T10:45:28.660Z,99904.97
2022-10-05T10:48:19.197Z,99907.63
2022-10-05T10:51:23.276Z,99910.37
2022-10-05T10:54:20.284Z,99897.59
2022-10-05T10:56:52.976Z,99903.53
2022-10-05T10:59:57.976Z,99904.72
2022-10-05T11:02:37.233Z,99895.34
2022-10-05T11:05:23.395Z,99896.72
2022-10-05T11:07:57.089Z,99894.53
2022-10-05T11:10:33.033Z,99899.50
2022-10-05T11:13:38.230Z,99894.13
2022-10-05T11:16:30.566Z,99892.31
2022-10-05T11:19:30.912Z,99894.41
2022-10-05T11:22:44.295Z,99890.84
2022-10-05T11:25:48.735Z,99886.50
2022-10-05T11:28:15.915Z,99887.84
2022-10-05T11:31:06.699Z,99885.03
2022-10-05T11:33:58.313Z,99885.47
2022-10-05T11:36:34.377Z,99880.00
2022-10-05T11:39:18.833Z,99882.88
2022-10-05T11:42:00.777Z,99876.09
2022-10-05T11:44:50.558Z,99875.12
2022-10-05T11:47:26.676Z,99871.06
2022-10-05T11:50:17.125Z,99861.28
2022-10-05T11:53:13.043Z,99859.19
2022-10-05T11:56:09.467Z,99858.59
2022-10-05T11:58:44.072Z,99856.31
2022-10-05T12:01:40.249Z,99851.13
2022-10-05T12:04:33.227Z,99856.28
2022-10-05T12:07:43.414Z,99848.50
2022-10-05T12:10:37.405Z,99846.63
2022-10-05T12:13:14.275Z,99831.31
2022-10-05T12:15:48.393Z,99829.78
2022-10-05T12:18:24.977Z,99835.63
2022-10-05T12:20:56.721Z,99838.28
2022-10-05T12:23:42.215Z,99843.94
2022-10-05T12:26:15.038Z,99832.66
2022-10-05T12:28:47.945Z,99833.00
2022-10-05T12:31:52.144Z,99831.84
2022-10-05T12:34:25.021Z,99830.69
2022-10-05T12:37:03.912Z,99834.66
2022-10-05T12:39:59.153Z,99835.34
2022-10-05T12:42:32.353Z,99831.53
2022-10-05T12:45:20.161Z,99826.72
2022-10-05T12:48:05.149Z,99829.06
2022-10-05T12:50:44.366Z,99825.06
2022-10-05T12:53:32.953Z,99819.75
2022-10-05T12:56:38.473Z,99812.41
2022-10-05T12:59:08.599Z,99813.13
2022-10-05T13:01:46.824Z,99808.13
2022-10-05T13:04:31.201Z,99809.41
2022-10-05T13:07:16.586Z,99804.28
2022-10-05T13:10:19.331Z,99804.09
2022-10-05T13:12:53.031Z,99806.09
2022-10-05T13:15:27.933Z,99810.59
2022-10-05T13:18:04.101Z,99799.41
2022-10-05T13:20:46.933Z,99801.38
2022-10-05T13:23:25.351Z,99796.75
2022-10-05T13:25:55.347Z,99796.81
2022-10-05T13:28:30.865Z,99801.09
2022-10-05T13:31:05.037Z,99791.97
2022-10-05T13:33:53.842Z,99792.84
2022-10-05T13:36:33.218Z,99796.53
2022-10-05T13:39:21.559Z,99793.22
2022-10-05T13:41:59.657Z,99787.53
2022-10-05T13:44:46.799Z,99787.87
2022-10-05T13:47:32.895Z,99787.16
2022-10-05T13:50:07.518Z,99789.53
2022-10-05T13:52:42.228Z,99785.22
2022-10-05T13:55:35.282Z,99777.94
2022-10-05T13:58:06.552Z,99785.41
2022-10-05T14:00:41.625Z,99785.22
2022-10-05T14:03:27.913Z,99784.75
2022-10-05T14:05:59.987Z,99787.72
2022-10-05T14:08:29.765Z,99793.03
2022-10-05T14:10:56.906Z,99782.91
2022-10-05T14:13:29.191Z,99784.06
2022-10-05T14:16:13.202Z,99786.38
2022-10-05T14:19:06.116Z,99786.06
2022-10-05T14:21:46.127Z,99791.19
2022-10-05T14:24:45.194Z,99788.50
2022-10-05T14:27:27.576Z,99785.69
2022-10-05T14:30:08.281Z,99783.72
2022-10-05T14:32:56.227Z,99792.50
2022-10-05T14:35:30.235Z,99790.50
2022-10-05T14:38:00.719Z,99784.50
2022-10-05T14:40:33.276Z,99789.03
2022-10-05T14:43:15.941Z,99779.09
2022-10-05T14:45:57.528Z,99787.13
2022-10-05T14:48:29.811Z,99782.59
2022-10-05T14:50:59.543Z,99778.19
2022-10-05T14:53:39.553Z,99778.34
2022-10-05T14:56:17.284Z,99775.84
2022-10-05T14:59:00.848Z,99774.78
2022-10-05T15:01:32.693Z,99784.41
2022-10-05T15:04:10.148Z,99781.38
2022-10-05T15:06:47.226Z,99779.66
2022-10-05T15:09:26.395Z,99783.09
2022-10-05T15:11:58.685Z,99779.03
2022-10-05T15:14:36.929Z,99776.12
2022-10-05T15:17:13.905Z,99778.34
2022-10-05T15:20:02.207Z,99784.69
2022-10-05T15:22:34.288Z,99777.34
2022-10-05T15:25:31.298Z,99764.28
2022-10-05T15:28:17.932Z,99745.25
2022-10-05T15:31:01.838Z,99736.28
2022-10-05T15:33:34.458Z,99742.47
2022-10-05T15:36:26.426Z,99741.50
2022-10-05T15:39:12.305Z,99754.16
2022-10-05T15:41:47.615Z,99760.97
2022-10-05T15:44:20.661Z,99764.81
2022-10-05T15:46:56.466Z,99755.22
2022-10-05T15:49:50.860Z,99738.09
2022-10-05T15:52:26.114Z,99742.00
2022-10-05T15:55:11.391Z,99735.75
2022-10-05T15:58:09.557Z,99738.97
2022-10-05T16:00:47.736Z,99744.66
2022-10-05T16:03:40.369Z,99752.72
2022-10-05T16:06:32.742Z,99751.72
2022-10-05T16:09:38.544Z,99747.84
2022-10-05T16:12:09.717Z,99746.59
2022-10-05T16:14:55.961Z,99756.44
2022-10-05T16:17:33.921Z,99756.41
2022-10-05T16:20:23.113Z,99757.25
2022-10-05T16:23:02.578Z,99761.25
2022-10-05T16:25:39.995Z,99766.53
2022-10-05T16:28:16.324Z,99767.94
2022-10-05T16:30:51.671Z,99774.03
2022-10-05T16:33:27.033Z,99775.53
2022-10-05T16:36:12.326Z,99771.63
2022-10-05T16:39:03.729Z,99774.13
2022-10-05T16:41:39.264Z,99771.34
2022-10-05T16:44:27.779Z,99783.09
2022-10-05T16:47:27.425Z,99783.09
2022-10-05T16:50:16.087Z,99787.81
2022-10-05T16:52:46.026Z,99789.44
2022-10-05T16:55:19.152Z,99782.59
2022-10-05T16:57:55.563Z,99781.50
2022-10-05T17:00:56.296Z,99782.28
2022-10-05T17:04:08.814Z,99780.56
2022-10-05T17:07:04.890Z,99783.34
2022-10-05T17:09:47.279Z,99793.69
2022-10-05T17:12:27.560Z,99797.16
2022-10-05T17:15:06.372Z,99793.84
2022-10-05T17:17:33.293Z,99804.16
2022-10-05T17:20:29.370Z,99803.69
2022-10-05T17:23:21.407Z,99809.34
2022-10-05T17:26:21.381Z,99800.63
2022-10-05T17:28:51.347Z,99805.03
2022-10-05T17:31:28.006Z,99808.75
2022-10-05T17:34:24.868Z,99807.84
2022-10-05T17:37:38.023Z,99813.03
2022-10-05T17:40:32.513Z,99812.22
2022-10-05T17:43:01.353Z,99806.38
2022-10-05T17:45:34.249Z,99807.72
2022-10-05T17:48:06.116Z,99813.94
2022-10-05T17:51:04.207Z,99819.53
2022-10-05T17:54:02.372Z,99820.16
2022-10-05T17:56:31.337Z,99813.03
2022-10-05T17:59:04.239Z,99816.25
2022-10-05T18:01:41.462Z,99819.03
2022-10-05T18:04:11.557Z,99814.59
2022-10-05T18:06:57.137Z,99816.50
2022-10-05T18:09:25.960Z,99815.47
2022-10-05T18:12:08.842Z,99819.69
2022-10-05T18:15:14.074Z,99807.50
2022-10-05T18:17:45.504Z,99804.91
2022-10-05T18:20:19.124Z,99812.09
2022-10-05T18:22:46.793Z,99819.13
2022-10-05T18:25:27.181Z,99815.94
2022-10-05T18:28:12.667Z,99814.50
2022-10-05T18:30:59.167Z,99817.63
2022-10-05T18:33:41.365Z,99819.06
2022-10-05T18:36:27.430Z,99826.00
2022-10-05T18:38:59.821Z,99818.03
2022-10-05T18:41:43.044Z,99816.50
2022-10-05T18:44:16.084Z,99817.81
2022-10-05T18:47:20.863Z,99818.87
2022-10-05T18:50:00.586Z,99807.62
2022-10-05T18:52:36.283Z,99802.37
2022-10-05T18:55:03.392Z,99807.75
2022-10-05T18:57:40.023Z,99805.75
2022-10-05T19:00:10.001Z,99812.22
2022-10-05T19:02:44.924Z,99806.09
2022-10-05T19:05:56.613Z,99809.84
2022-10-05T19:08:59.137Z,99810.53
2022-10-05T19:11:59.292Z,99810.06
2022-10-05T19:14:45.283Z,99818.78
2022-10-05T19:17:28.579Z,99818.06
2022-10-05T19:20:09.332Z,99809.13
2022-10-05T19:22:53.994Z,99813.19
2022-10-05T19:25:25.984Z,99817.97
2022-10-05T19:28:20.601Z,99823.09
2022-10-05T19:31:09.785Z,99828.06
2022-10-05T19:33:58.395Z,99826.88
2022-10-05T19:36:32.515Z,99825.56
2022-10-05T19:39:40.603Z,99815.91
2022-10-05T19:42:28.721Z,99819.59
2022-10-05T19:45:23.138Z,99821.75
2022-10-05T19:48:08.751Z,99825.09
2022-10-05T19:50:38.441Z,99830.12
2022-10-05T19:53:19.767Z,99820.06
2022-10-05T19:55:47.162Z,99829.03
2022-10-05T19:58:25.968Z,99826.66
2022-10-05T20:01:00.970Z,99833.06
2022-10-05T20:03:30.303Z,99827.94
2022-10-05T20:06:01.957Z,99830.44
2022-10-05T20:08:39.409Z,99835.34
2022-10-05T20:11:15.240Z,99830.69
2022-10-05T20:14:06.720Z,99840.25
2022-10-05T20:16:53.902Z,99839.97
2022-10-05T20:19:36.237Z,99853.94
2022-10-05T20:22:26.368Z,99851.44
2022-10-05T20:25:18.105Z,99849.16
2022-10-05T20:28:03.316Z,99853.94
2022-10-05T20:30:48.994Z,99857.28
2022-10-05T20:33:34.512Z,99856.53
2022-10-05T20:36:20.366Z,99862.03
2022-10-05T20:39:05.720Z,99865.09
2022-10-05T20:41:51.740Z,99858.88
2022-10-05T20:44:37.886Z,99862.81
2022-10-05T20:47:24.285Z,99860.91
2022-10-05T20:49:53.410Z,99858.53
2022-10-05T20:52:21.428Z,99851.69
2022-10-05T20:54:55.824Z,99854.19
2022-10-05T20:57:24.237Z,99854.63
2022-10-05T20:59:51.517Z,99855.22
2022-10-05T21:02:19.549Z,99848.03
2022-10-05T21:04:47.761Z,99849.09
2022-10-05T21:07:16.303Z,99849.50
2022-10-05T21:09:44.672Z,99852.25
2022-10-05T21:12:12.542Z,99854.88
2022-10-05T21:14:40.568Z,99866.22
2022-10-05T21:17:07.755Z,99859.53
2022-10-05T21:19:44.255Z,99852.91
2022-10-05T21:22:11.941Z,99850.78
2022-10-05T21:24:40.793Z,99861.50
2022-10-05T21:27:08.344Z,99852.03
2022-10-05T21:29:36.452Z,99855.56
2022-10-05T21:32:08.574Z,99854.75
2022-10-05T21:34:35.798Z,99855.00
2022-10-05T21:37:02.803Z,99863.75
2022-10-05T21:39:30.357Z,99860.59
2022-10-05T21:41:57.370Z,99851.91
2022-10-05T21:44:24.329Z,99843.81
2022-10-05T21:46:51.910Z,99847.50
2022-10-05T21:49:19.856Z,99848.37
2022-10-05T21:51:47.568Z,99849.41
2022-10-05T21:54:18.597Z,99847.94
2022-10-05T21:56:49.456Z,99839.81
2022-10-05T21:59:19.233Z,99845.50
2022-10-05T22:01:46.330Z,99848.75
2022-10-05T22:04:15.022Z,99863.97
2022-10-05T22:06:42.118Z,99852.25
2022-10-05T22:09:09.460Z,99845.12
2022-10-05T22:11:36.775Z,99843.06
2022-10-05T22:14:04.124Z,99850.41
2022-10-05T22:16:33.731Z,99850.19
2022-10-05T22:19:05.929Z,99844.34
2022-10-05T22:21:37.850Z,99835.13
2022-10-05T22:24:05.539Z,99840.78
2022-10-05T22:26:32.881Z,99837.56
2022-10-05T22:29:01.713Z,99833.47
2022-10-05T22:31:29.132Z,99830.25
2022-10-05T22:33:56.161Z,99824.38
2022-10-05T22:36:23.218Z,99826.16
2022-10-05T22:38:50.554Z,99829.50
2022-10-05T22:41:20.527Z,99825.72
2022-10-05T22:43:50.105Z,99824.81
2022-10-05T22:46:18.342Z,99830.44
2022-10-05T22:48:45.507Z,99823.84
2022-10-05T22:51:12.657Z,99822.75
2022-10-05T22:53:39.949Z,99826.91
2022-10-05T23:00:08.300Z,99824.63
2022-10-05T23:02:40.170Z,99829.94
2022-10-05T23:05:08.261Z,99826.69
2022-10-05T23:07:39.928Z,99822.66
2022-10-05T23:10:08.209Z,99819.44
2022-10-05T23:12:35.478Z,99814.16
2022-10-05T23:15:02.640Z,99812.41
2022-10-05T23:17:30.390Z,99816.22
2022-10-05T23:19:57.941Z,99806.69
2022-10-05T23:22:25.382Z,99803.66
2022-10-05T23:24:52.493Z,99796.22
2022-10-05T23:27:20.109Z,99805.13
2022-10-05T23:29:47.150Z,99799.38
2022-10-05T23:32:14.199Z,99800.50
2022-10-05T23:34:41.496Z,99800.94
2022-10-05T23:37:08.563Z,99797.59
2022-10-05T23:39:35.528Z,99793.53
2022-10-05T23:42:02.833Z,99797.41
2022-10-05T23:44:29.872Z,99802.03
2022-10-05T23:46:56.869Z,99799.53
2022-10-05T23:49:24.145Z,99795.44
2022-10-05T23:51:51.124Z,99792.44
2022-10-05T23:54:18.126Z,99795.47
2022-10-05T23:56:45.422Z,99793.06
2022-10-05T23:59:12.399Z,99798.41
